Etusivu
METAR-TAF:

METAR-TAF

Lentoasemat :

Kangerlussuaqin lentoasema

Kangerlussuaq, Grönlanti

Leveyspiiri: 67-01N, Pituuspiiri: 050-42W, korkeus merenpinnasta: 50 m

Tämänhetkinen sää

Tämä raportti tehtiin 44 minuuttia sitten, kello 06.50 UTC
Tuuli 7 kn idästä/koillisesta
Lämpötila -25°C
Kosteus 69%
Ilmanpaine 1049 hPa
Näkyvyys 10 km tai enemmän

METAR: BGSF 020650Z AUTO 06007KT 9999NDV NCD M25/M29 Q1049

Aika: 05:34 (07:34 UTC)

Sääennuste

Tämä raportti tehtiin 2 tuntia ja 34 minuuttia sitten, kello 05.00 UTC
Ennuste voimassa 02. päivästä klo 06 UTC - 02. päivään klo 23 UTC
Tuuli 8 kn idästä/koillisesta
Näkyvyys 10 km tai enemmän
Hajanaisia pilviä 5000 ft:n korkeudessa

TAF: BGSF 020500Z 0206/0223 06008KT 9999 SCT050

Säähavainnot ja -ennusteet yli 4000 lentoasemalta (METAR- ja TAF-raportit).

Käytössä olevat sääasemat on merkitty karttaan keltaisilla ja punaisilla pisteillä.

Aseta hiiri pisteen päälle nähdäksesi sääaseman nimen.

Klikkaa sitten nähdäksesi säähavainnot ja -ennusteet.

Kartan vaihtaminen: klikkaa mustalla rastilla varustettuja vihreitä pisteitä, niin voit zoomata sisään; viivalla varustettua vihreää pistettä, niin voit zoomata ulos tai vihreitä nuolia, niin pääset viereisille kartoille.


METAR-TAF: